sensor_id;sensor_type;location;lat;lon;timestamp;temperature;humidity
76936;DHT22;65881;52.438;16.744;2023-01-08T00:00:52;1.90;99.90
76936;DHT22;65881;52.438;16.744;2023-01-08T00:03:18;1.80;99.90
76936;DHT22;65881;52.438;16.744;2023-01-08T00:05:44;1.80;99.90
76936;DHT22;65881;52.438;16.744;2023-01-08T00:08:09;1.90;99.90
76936;DHT22;65881;52.438;16.744;2023-01-08T00:10:36;1.80;99.90
76936;DHT22;65881;52.438;16.744;2023-01-08T00:13:03;1.90;99.90
76936;DHT22;65881;52.438;16.744;2023-01-08T00:15:29;1.80;99.90
76936;DHT22;65881;52.438;16.744;2023-01-08T00:17:55;1.80;99.90
76936;DHT22;65881;52.438;16.744;2023-01-08T00:20:22;1.80;99.90
76936;DHT22;65881;52.438;16.744;2023-01-08T00:22:48;1.80;99.90
76936;DHT22;65881;52.438;16.744;2023-01-08T00:25:15;1.80;99.90
76936;DHT22;65881;52.438;16.744;2023-01-08T00:27:40;1.80;99.90
76936;DHT22;65881;52.438;16.744;2023-01-08T00:30:07;1.80;99.90
76936;DHT22;65881;52.438;16.744;2023-01-08T00:32:33;1.80;99.90
76936;DHT22;65881;52.438;16.744;2023-01-08T00:34:58;1.80;99.90
76936;DHT22;65881;52.438;16.744;2023-01-08T00:37:26;1.80;99.90
76936;DHT22;65881;52.438;16.744;2023-01-08T00:39:52;1.90;99.90
76936;DHT22;65881;52.438;16.744;2023-01-08T00:42:18;1.90;99.90
76936;DHT22;65881;52.438;16.744;2023-01-08T00:44:44;2.00;99.90
76936;DHT22;65881;52.438;16.744;2023-01-08T00:47:10;1.90;99.90
76936;DHT22;65881;52.438;16.744;2023-01-08T00:49:36;1.90;99.90
76936;DHT22;65881;52.438;16.744;2023-01-08T00:52:02;2.00;99.90
76936;DHT22;65881;52.438;16.744;2023-01-08T00:54:27;2.00;99.90
76936;DHT22;65881;52.438;16.744;2023-01-08T00:56:56;2.00;99.90
76936;DHT22;65881;52.438;16.744;2023-01-08T00:59:22;2.00;99.90
76936;DHT22;65881;52.438;16.744;2023-01-08T01:01:48;1.90;99.90
76936;DHT22;65881;52.438;16.744;2023-01-08T01:04:14;1.80;99.90
76936;DHT22;65881;52.438;16.744;2023-01-08T01:06:40;1.80;99.90
76936;DHT22;65881;52.438;16.744;2023-01-08T01:09:06;1.80;99.90
76936;DHT22;65881;52.438;16.744;2023-01-08T01:11:32;1.70;99.90
76936;DHT22;65881;52.438;16.744;2023-01-08T01:13:58;1.60;99.90
76936;DHT22;65881;52.438;16.744;2023-01-08T01:16:24;1.60;99.90
76936;DHT22;65881;52.438;16.744;2023-01-08T01:18:51;1.70;99.90
76936;DHT22;65881;52.438;16.744;2023-01-08T01:21:24;1.70;99.90
76936;DHT22;65881;52.438;16.744;2023-01-08T01:23:52;1.70;99.90
76936;DHT22;65881;52.438;16.744;2023-01-08T01:26:20;1.60;99.90
76936;DHT22;65881;52.438;16.744;2023-01-08T01:28:50;1.60;99.90
76936;DHT22;65881;52.438;16.744;2023-01-08T01:31:16;1.60;99.90
76936;DHT22;65881;52.438;16.744;2023-01-08T01:33:42;1.60;99.90
76936;DHT22;65881;52.438;16.744;2023-01-08T01:36:10;1.60;99.90
76936;DHT22;65881;52.438;16.744;2023-01-08T01:38:36;1.60;99.90
76936;DHT22;65881;52.438;16.744;2023-01-08T01:41:02;1.60;99.90
76936;DHT22;65881;52.438;16.744;2023-01-08T01:43:34;1.60;99.90
76936;DHT22;65881;52.438;16.744;2023-01-08T01:46:01;1.50;99.90
76936;DHT22;65881;52.438;16.744;2023-01-08T01:48:27;1.40;99.90
76936;DHT22;65881;52.438;16.744;2023-01-08T01:50:53;1.40;99.90
76936;DHT22;65881;52.438;16.744;2023-01-08T01:53:28;1.40;99.90
76936;DHT22;65881;52.438;16.744;2023-01-08T01:55:56;1.40;99.90
76936;DHT22;65881;52.438;16.744;2023-01-08T01:58:24;1.40;99.90
76936;DHT22;65881;52.438;16.744;2023-01-08T02:00:52;1.50;99.90
76936;DHT22;65881;52.438;16.744;2023-01-08T02:03:25;1.50;99.90
76936;DHT22;65881;52.438;16.744;2023-01-08T02:08:49;1.50;99.90
76936;DHT22;65881;52.438;16.744;2023-01-08T02:11:24;1.50;99.90
76936;DHT22;65881;52.438;16.744;2023-01-08T02:17:05;1.50;99.90
76936;DHT22;65881;52.438;16.744;2023-01-08T02:19:43;1.50;99.90
76936;DHT22;65881;52.438;16.744;2023-01-08T02:22:13;1.40;99.90
76936;DHT22;65881;52.438;16.744;2023-01-08T02:27:29;1.40;99.90
76936;DHT22;65881;52.438;16.744;2023-01-08T02:29:56;1.50;99.90
76936;DHT22;65881;52.438;16.744;2023-01-08T02:32:26;1.50;99.90
76936;DHT22;65881;52.438;16.744;2023-01-08T02:34:52;1.50;99.90
76936;DHT22;65881;52.438;16.744;2023-01-08T02:37:18;1.50;99.90
76936;DHT22;65881;52.438;16.744;2023-01-08T02:44:57;1.40;99.90
76936;DHT22;65881;52.438;16.744;2023-01-08T02:47:34;1.40;99.90
76936;DHT22;65881;52.438;16.744;2023-01-08T02:50:07;1.40;99.90
76936;DHT22;65881;52.438;16.744;2023-01-08T02:52:40;1.30;99.90
76936;DHT22;65881;52.438;16.744;2023-01-08T02:55:07;1.20;99.90
76936;DHT22;65881;52.438;16.744;2023-01-08T02:57:34;1.20;99.90
76936;DHT22;65881;52.438;16.744;2023-01-08T03:00:02;1.10;99.90
76936;DHT22;65881;52.438;16.744;2023-01-08T03:02:30;1.00;99.90
76936;DHT22;65881;52.438;16.744;2023-01-08T03:05:02;1.00;99.90
76936;DHT22;65881;52.438;16.744;2023-01-08T03:07:29;0.80;99.90
76936;DHT22;65881;52.438;16.744;2023-01-08T03:09:55;0.80;99.90
76936;DHT22;65881;52.438;16.744;2023-01-08T03:13:01;0.80;99.90
76936;DHT22;65881;52.438;16.744;2023-01-08T03:15:29;0.80;99.90
76936;DHT22;65881;52.438;16.744;2023-01-08T03:17:59;0.80;99.90
76936;DHT22;65881;52.438;16.744;2023-01-08T03:20:28;0.70;99.90
76936;DHT22;65881;52.438;16.744;2023-01-08T03:22:56;0.70;99.90
76936;DHT22;65881;52.438;16.744;2023-01-08T03:25:24;0.70;99.90
76936;DHT22;65881;52.438;16.744;2023-01-08T03:27:54;0.70;99.90
76936;DHT22;65881;52.438;16.744;2023-01-08T03:30:22;0.70;99.90
76936;DHT22;65881;52.438;16.744;2023-01-08T03:32:50;0.70;99.90
76936;DHT22;65881;52.438;16.744;2023-01-08T03:35:21;0.70;99.90
76936;DHT22;65881;52.438;16.744;2023-01-08T03:37:50;0.80;99.90
76936;DHT22;65881;52.438;16.744;2023-01-08T03:40:20;0.80;99.90
76936;DHT22;65881;52.438;16.744;2023-01-08T03:42:48;0.80;99.90
76936;DHT22;65881;52.438;16.744;2023-01-08T03:45:14;0.80;99.90
76936;DHT22;65881;52.438;16.744;2023-01-08T03:47:40;0.80;99.90
76936;DHT22;65881;52.438;16.744;2023-01-08T03:50:10;0.70;99.90
76936;DHT22;65881;52.438;16.744;2023-01-08T03:52:38;0.80;99.90
76936;DHT22;65881;52.438;16.744;2023-01-08T03:55:04;0.70;99.90
76936;DHT22;65881;52.438;16.744;2023-01-08T03:57:30;0.80;99.90
76936;DHT22;65881;52.438;16.744;2023-01-08T03:59:56;0.80;99.90
76936;DHT22;65881;52.438;16.744;2023-01-08T04:02:21;0.90;99.90
76936;DHT22;65881;52.438;16.744;2023-01-08T04:04:47;1.00;99.90
76936;DHT22;65881;52.438;16.744;2023-01-08T04:07:13;1.00;99.90
76936;DHT22;65881;52.438;16.744;2023-01-08T04:09:39;1.00;99.90
76936;DHT22;65881;52.438;16.744;2023-01-08T04:12:05;1.00;99.90
76936;DHT22;65881;52.438;16.744;2023-01-08T04:14:30;1.00;99.90
76936;DHT22;65881;52.438;16.744;2023-01-08T04:16:56;1.10;99.90
76936;DHT22;65881;52.438;16.744;2023-01-08T04:19:22;1.10;99.90
76936;DHT22;65881;52.438;16.744;2023-01-08T04:21:50;1.10;99.90
76936;DHT22;65881;52.438;16.744;2023-01-08T04:24:18;1.20;99.90
76936;DHT22;65881;52.438;16.744;2023-01-08T04:26:44;1.20;99.90
76936;DHT22;65881;52.438;16.744;2023-01-08T04:29:11;1.20;99.90
76936;DHT22;65881;52.438;16.744;2023-01-08T04:31:37;1.30;99.90
76936;DHT22;65881;52.438;16.744;2023-01-08T04:34:02;1.20;99.90
76936;DHT22;65881;52.438;16.744;2023-01-08T04:36:29;1.20;99.90
76936;DHT22;65881;52.438;16.744;2023-01-08T04:38:54;1.20;99.90
76936;DHT22;65881;52.438;16.744;2023-01-08T04:41:20;1.20;99.90
76936;DHT22;65881;52.438;16.744;2023-01-08T04:43:46;1.10;99.90
76936;DHT22;65881;52.438;16.744;2023-01-08T04:46:12;1.20;99.90
76936;DHT22;65881;52.438;16.744;2023-01-08T04:48:37;1.20;99.90
76936;DHT22;65881;52.438;16.744;2023-01-08T04:51:03;1.20;99.90
76936;DHT22;65881;52.438;16.744;2023-01-08T04:53:32;1.20;99.90
76936;DHT22;65881;52.438;16.744;2023-01-08T04:56:06;1.10;99.90
76936;DHT22;65881;52.438;16.744;2023-01-08T04:58:33;1.10;99.90
76936;DHT22;65881;52.438;16.744;2023-01-08T05:00:58;1.20;99.90
76936;DHT22;65881;52.438;16.744;2023-01-08T05:03:24;1.20;99.90
76936;DHT22;65881;52.438;16.744;2023-01-08T05:05:50;1.20;99.90
76936;DHT22;65881;52.438;16.744;2023-01-08T05:08:16;1.20;99.90
76936;DHT22;65881;52.438;16.744;2023-01-08T05:10:42;1.20;99.90
76936;DHT22;65881;52.438;16.744;2023-01-08T05:13:07;1.30;99.90
76936;DHT22;65881;52.438;16.744;2023-01-08T05:15:33;1.30;99.90
76936;DHT22;65881;52.438;16.744;2023-01-08T05:18:03;1.20;99.90
76936;DHT22;65881;52.438;16.744;2023-01-08T05:20:31;1.10;99.90
76936;DHT22;65881;52.438;16.744;2023-01-08T05:22:56;1.00;99.90
76936;DHT22;65881;52.438;16.744;2023-01-08T05:25:23;1.00;99.90
76936;DHT22;65881;52.438;16.744;2023-01-08T05:27:49;1.00;99.90
76936;DHT22;65881;52.438;16.744;2023-01-08T05:30:15;1.00;99.90
76936;DHT22;65881;52.438;16.744;2023-01-08T05:32:41;0.90;99.90
76936;DHT22;65881;52.438;16.744;2023-01-08T05:35:07;0.80;99.90
76936;DHT22;65881;52.438;16.744;2023-01-08T05:37:33;0.80;99.90
76936;DHT22;65881;52.438;16.744;2023-01-08T05:39:59;0.80;99.90
76936;DHT22;65881;52.438;16.744;2023-01-08T05:42:25;0.70;99.90
76936;DHT22;65881;52.438;16.744;2023-01-08T05:44:51;0.60;99.90
76936;DHT22;65881;52.438;16.744;2023-01-08T05:47:17;0.60;99.90
76936;DHT22;65881;52.438;16.744;2023-01-08T05:49:42;0.60;99.90
76936;DHT22;65881;52.438;16.744;2023-01-08T05:52:08;0.50;99.90
76936;DHT22;65881;52.438;16.744;2023-01-08T05:54:34;0.60;99.90
76936;DHT22;65881;52.438;16.744;2023-01-08T05:56:59;0.60;99.90
76936;DHT22;65881;52.438;16.744;2023-01-08T05:59:25;0.60;99.90
76936;DHT22;65881;52.438;16.744;2023-01-08T06:01:51;0.60;99.90
76936;DHT22;65881;52.438;16.744;2023-01-08T06:04:18;0.60;99.90
76936;DHT22;65881;52.438;16.744;2023-01-08T06:06:44;0.60;99.90
76936;DHT22;65881;52.438;16.744;2023-01-08T06:09:10;0.50;99.90
76936;DHT22;65881;52.438;16.744;2023-01-08T06:11:36;0.50;99.90
76936;DHT22;65881;52.438;16.744;2023-01-08T06:14:01;0.60;99.90
76936;DHT22;65881;52.438;16.744;2023-01-08T06:16:27;0.60;99.90
76936;DHT22;65881;52.438;16.744;2023-01-08T06:18:52;0.60;99.90
76936;DHT22;65881;52.438;16.744;2023-01-08T06:21:18;0.60;99.90
76936;DHT22;65881;52.438;16.744;2023-01-08T06:23:44;0.60;99.90
76936;DHT22;65881;52.438;16.744;2023-01-08T06:26:10;0.70;99.90
76936;DHT22;65881;52.438;16.744;2023-01-08T06:28:35;0.70;99.90
76936;DHT22;65881;52.438;16.744;2023-01-08T06:31:01;0.70;99.90
76936;DHT22;65881;52.438;16.744;2023-01-08T06:33:28;0.70;99.90
76936;DHT22;65881;52.438;16.744;2023-01-08T06:35:54;0.60;99.90
76936;DHT22;65881;52.438;16.744;2023-01-08T06:38:20;0.50;99.90
76936;DHT22;65881;52.438;16.744;2023-01-08T06:40:46;0.50;99.90
76936;DHT22;65881;52.438;16.744;2023-01-08T06:43:12;0.50;99.90
76936;DHT22;65881;52.438;16.744;2023-01-08T06:45:38;0.50;99.90
76936;DHT22;65881;52.438;16.744;2023-01-08T06:48:05;0.50;99.90
76936;DHT22;65881;52.438;16.744;2023-01-08T06:50:32;0.40;99.90
76936;DHT22;65881;52.438;16.744;2023-01-08T06:52:58;0.40;99.90
76936;DHT22;65881;52.438;16.744;2023-01-08T06:55:24;0.30;99.90
76936;DHT22;65881;52.438;16.744;2023-01-08T06:57:57;0.20;99.90
76936;DHT22;65881;52.438;16.744;2023-01-08T07:00:25;0.20;99.90
76936;DHT22;65881;52.438;16.744;2023-01-08T07:02:52;0.20;99.90
76936;DHT22;65881;52.438;16.744;2023-01-08T07:05:18;0.30;99.90
76936;DHT22;65881;52.438;16.744;2023-01-08T07:07:44;0.30;99.90
76936;DHT22;65881;52.438;16.744;2023-01-08T07:10:10;0.30;99.90
76936;DHT22;65881;52.438;16.744;2023-01-08T07:12:36;0.30;99.90
76936;DHT22;65881;52.438;16.744;2023-01-08T07:15:02;0.40;99.90
76936;DHT22;65881;52.438;16.744;2023-01-08T07:17:31;0.40;99.90
76936;DHT22;65881;52.438;16.744;2023-01-08T07:19:57;0.50;99.90
76936;DHT22;65881;52.438;16.744;2023-01-08T07:22:24;0.50;99.90
76936;DHT22;65881;52.438;16.744;2023-01-08T07:24:51;0.50;99.90
76936;DHT22;65881;52.438;16.744;2023-01-08T07:27:16;0.60;99.90
76936;DHT22;65881;52.438;16.744;2023-01-08T07:29:43;0.70;99.90
76936;DHT22;65881;52.438;16.744;2023-01-08T07:32:09;0.80;99.90
76936;DHT22;65881;52.438;16.744;2023-01-08T07:34:35;0.80;99.90
76936;DHT22;65881;52.438;16.744;2023-01-08T07:37:01;0.80;99.90
76936;DHT22;65881;52.438;16.744;2023-01-08T07:39:27;0.80;99.90
76936;DHT22;65881;52.438;16.744;2023-01-08T07:41:59;0.80;99.90
76936;DHT22;65881;52.438;16.744;2023-01-08T07:44:24;0.80;99.90
76936;DHT22;65881;52.438;16.744;2023-01-08T07:46:50;0.80;99.90
76936;DHT22;65881;52.438;16.744;2023-01-08T07:49:17;0.90;99.90
76936;DHT22;65881;52.438;16.744;2023-01-08T07:51:42;1.00;99.90
76936;DHT22;65881;52.438;16.744;2023-01-08T07:54:08;1.00;99.90
76936;DHT22;65881;52.438;16.744;2023-01-08T07:56:34;1.00;99.90
76936;DHT22;65881;52.438;16.744;2023-01-08T07:59:03;1.10;99.90
76936;DHT22;65881;52.438;16.744;2023-01-08T08:01:32;1.10;99.90
76936;DHT22;65881;52.438;16.744;2023-01-08T08:03:57;1.10;99.90
76936;DHT22;65881;52.438;16.744;2023-01-08T08:06:23;1.20;99.90
76936;DHT22;65881;52.438;16.744;2023-01-08T08:08:49;1.20;99.90
76936;DHT22;65881;52.438;16.744;2023-01-08T08:11:15;1.20;99.90
76936;DHT22;65881;52.438;16.744;2023-01-08T08:13:41;1.20;99.90
76936;DHT22;65881;52.438;16.744;2023-01-08T08:16:10;1.10;99.90
76936;DHT22;65881;52.438;16.744;2023-01-08T08:18:36;1.20;99.90
76936;DHT22;65881;52.438;16.744;2023-01-08T08:21:02;1.20;99.90
76936;DHT22;65881;52.438;16.744;2023-01-08T08:23:28;1.30;99.90
76936;DHT22;65881;52.438;16.744;2023-01-08T08:25:54;1.40;99.90
76936;DHT22;65881;52.438;16.744;2023-01-08T08:28:19;1.40;99.90
76936;DHT22;65881;52.438;16.744;2023-01-08T08:30:45;1.50;99.90
76936;DHT22;65881;52.438;16.744;2023-01-08T08:33:11;1.60;99.90
76936;DHT22;65881;52.438;16.744;2023-01-08T08:35:37;1.70;99.90
76936;DHT22;65881;52.438;16.744;2023-01-08T08:38:03;1.70;99.90
76936;DHT22;65881;52.438;16.744;2023-01-08T08:40:29;1.80;99.90
76936;DHT22;65881;52.438;16.744;2023-01-08T08:42:59;1.90;99.90
76936;DHT22;65881;52.438;16.744;2023-01-08T08:45:26;1.90;99.90
76936;DHT22;65881;52.438;16.744;2023-01-08T08:47:51;2.00;99.90
76936;DHT22;65881;52.438;16.744;2023-01-08T08:50:18;2.10;99.90
76936;DHT22;65881;52.438;16.744;2023-01-08T08:52:43;2.20;99.90
76936;DHT22;65881;52.438;16.744;2023-01-08T08:55:11;2.30;99.90
76936;DHT22;65881;52.438;16.744;2023-01-08T08:57:44;2.30;99.90
76936;DHT22;65881;52.438;16.744;2023-01-08T09:00:11;2.40;99.90
76936;DHT22;65881;52.438;16.744;2023-01-08T09:02:43;2.40;99.90
76936;DHT22;65881;52.438;16.744;2023-01-08T09:05:09;2.50;99.90
76936;DHT22;65881;52.438;16.744;2023-01-08T09:07:35;2.50;99.90
76936;DHT22;65881;52.438;16.744;2023-01-08T09:10:00;2.50;99.90
76936;DHT22;65881;52.438;16.744;2023-01-08T09:12:26;2.60;99.90
76936;DHT22;65881;52.438;16.744;2023-01-08T09:14:52;2.70;99.90
76936;DHT22;65881;52.438;16.744;2023-01-08T09:17:20;2.80;99.90
76936;DHT22;65881;52.438;16.744;2023-01-08T09:19:46;2.90;99.90
76936;DHT22;65881;52.438;16.744;2023-01-08T09:22:11;3.00;99.90
76936;DHT22;65881;52.438;16.744;2023-01-08T09:24:37;3.10;99.90
76936;DHT22;65881;52.438;16.744;2023-01-08T09:27:03;3.20;99.90
76936;DHT22;65881;52.438;16.744;2023-01-08T09:29:28;3.30;99.90
76936;DHT22;65881;52.438;16.744;2023-01-08T09:31:54;3.50;99.90
76936;DHT22;65881;52.438;16.744;2023-01-08T09:34:20;3.60;99.90
76936;DHT22;65881;52.438;16.744;2023-01-08T09:36:46;3.90;99.90
76936;DHT22;65881;52.438;16.744;2023-01-08T09:39:12;3.90;99.90
76936;DHT22;65881;52.438;16.744;2023-01-08T09:41:41;4.00;99.90
76936;DHT22;65881;52.438;16.744;2023-01-08T09:44:13;4.10;99.90
76936;DHT22;65881;52.438;16.744;2023-01-08T09:46:39;4.10;99.80
76936;DHT22;65881;52.438;16.744;2023-01-08T09:49:06;4.20;99.90
76936;DHT22;65881;52.438;16.744;2023-01-08T09:51:37;4.30;99.90
76936;DHT22;65881;52.438;16.744;2023-01-08T09:54:05;4.30;99.70
76936;DHT22;65881;52.438;16.744;2023-01-08T09:56:35;4.40;99.90
76936;DHT22;65881;52.438;16.744;2023-01-08T09:59:03;4.50;99.90
76936;DHT22;65881;52.438;16.744;2023-01-08T10:01:34;4.70;99.70
76936;DHT22;65881;52.438;16.744;2023-01-08T10:06:30;4.80;99.20
76936;DHT22;65881;52.438;16.744;2023-01-08T10:08:56;4.90;98.30
76936;DHT22;65881;52.438;16.744;2023-01-08T10:11:24;4.90;98.00
76936;DHT22;65881;52.438;16.744;2023-01-08T10:13:55;4.90;97.90
76936;DHT22;65881;52.438;16.744;2023-01-08T10:16:32;4.90;98.30
76936;DHT22;65881;52.438;16.744;2023-01-08T10:18:58;5.00;98.00
76936;DHT22;65881;52.438;16.744;2023-01-08T10:21:37;5.00;98.00
76936;DHT22;65881;52.438;16.744;2023-01-08T10:24:04;5.00;97.80
76936;DHT22;65881;52.438;16.744;2023-01-08T10:26:34;5.10;97.90
76936;DHT22;65881;52.438;16.744;2023-01-08T10:29:20;5.10;97.70
76936;DHT22;65881;52.438;16.744;2023-01-08T10:31:58;5.20;97.40
76936;DHT22;65881;52.438;16.744;2023-01-08T10:40:06;5.30;96.60
76936;DHT22;65881;52.438;16.744;2023-01-08T10:42:34;5.30;97.50
76936;DHT22;65881;52.438;16.744;2023-01-08T10:45:08;5.30;97.00
76936;DHT22;65881;52.438;16.744;2023-01-08T10:47:36;5.30;96.50
76936;DHT22;65881;52.438;16.744;2023-01-08T10:50:04;5.40;97.10
76936;DHT22;65881;52.438;16.744;2023-01-08T10:52:36;5.50;96.40
76936;DHT22;65881;52.438;16.744;2023-01-08T10:55:22;5.50;96.80
76936;DHT22;65881;52.438;16.744;2023-01-08T10:58:01;5.50;96.50
76936;DHT22;65881;52.438;16.744;2023-01-08T11:00:36;5.70;96.50
76936;DHT22;65881;52.438;16.744;2023-01-08T11:03:04;5.80;96.30
76936;DHT22;65881;52.438;16.744;2023-01-08T11:05:38;6.00;96.20
76936;DHT22;65881;52.438;16.744;2023-01-08T11:08:16;6.10;95.00
76936;DHT22;65881;52.438;16.744;2023-01-08T11:10:55;6.30;94.90
76936;DHT22;65881;52.438;16.744;2023-01-08T11:13:22;6.40;94.00
76936;DHT22;65881;52.438;16.744;2023-01-08T11:16:08;6.40;93.70
76936;DHT22;65881;52.438;16.744;2023-01-08T11:18:46;6.50;92.90
76936;DHT22;65881;52.438;16.744;2023-01-08T11:21:21;6.50;92.20
76936;DHT22;65881;52.438;16.744;2023-01-08T11:26:30;6.40;91.90
76936;DHT22;65881;52.438;16.744;2023-01-08T11:29:06;6.40;93.10
76936;DHT22;65881;52.438;16.744;2023-01-08T11:34:15;6.40;93.00
76936;DHT22;65881;52.438;16.744;2023-01-08T11:36:48;6.50;93.40
76936;DHT22;65881;52.438;16.744;2023-01-08T11:39:14;6.60;93.30
76936;DHT22;65881;52.438;16.744;2023-01-08T11:52:44;6.60;94.00
76936;DHT22;65881;52.438;16.744;2023-01-08T11:55:48;6.60;93.60
76936;DHT22;65881;52.438;16.744;2023-01-08T11:58:25;6.70;93.40
76936;DHT22;65881;52.438;16.744;2023-01-08T12:01:02;6.70;92.50
76936;DHT22;65881;52.438;16.744;2023-01-08T12:15:18;6.70;92.50
76936;DHT22;65881;52.438;16.744;2023-01-08T12:18:16;6.60;92.80
76936;DHT22;65881;52.438;16.744;2023-01-08T12:29:07;6.50;92.80
76936;DHT22;65881;52.438;16.744;2023-01-08T12:37:31;6.40;92.70
76936;DHT22;65881;52.438;16.744;2023-01-08T12:40:04;6.40;92.90
76936;DHT22;65881;52.438;16.744;2023-01-08T12:42:35;6.40;93.00
76936;DHT22;65881;52.438;16.744;2023-01-08T12:45:02;6.40;92.90
76936;DHT22;65881;52.438;16.744;2023-01-08T12:47:32;6.30;93.30
76936;DHT22;65881;52.438;16.744;2023-01-08T12:50:18;6.40;93.20
76936;DHT22;65881;52.438;16.744;2023-01-08T12:52:57;6.30;93.10
76936;DHT22;65881;52.438;16.744;2023-01-08T12:55:37;6.30;93.60
76936;DHT22;65881;52.438;16.744;2023-01-08T13:03:41;6.30;93.30
76936;DHT22;65881;52.438;16.744;2023-01-08T13:06:11;6.30;93.00
76936;DHT22;65881;52.438;16.744;2023-01-08T13:08:39;6.30;93.00
76936;DHT22;65881;52.438;16.744;2023-01-08T13:11:06;6.30;92.80
76936;DHT22;65881;52.438;16.744;2023-01-08T13:16:19;6.30;92.80
76936;DHT22;65881;52.438;16.744;2023-01-08T13:19:22;6.20;92.90
76936;DHT22;65881;52.438;16.744;2023-01-08T13:21:52;6.20;93.30
76936;DHT22;65881;52.438;16.744;2023-01-08T13:24:33;6.20;93.00
76936;DHT22;65881;52.438;16.744;2023-01-08T13:29:50;6.20;93.10
76936;DHT22;65881;52.438;16.744;2023-01-08T13:32:42;6.10;93.00
76936;DHT22;65881;52.438;16.744;2023-01-08T13:37:42;6.00;93.20
76936;DHT22;65881;52.438;16.744;2023-01-08T13:49:16;5.90;93.80
76936;DHT22;65881;52.438;16.744;2023-01-08T13:54:38;5.80;93.80
76936;DHT22;65881;52.438;16.744;2023-01-08T13:57:10;5.80;94.30
76936;DHT22;65881;52.438;16.744;2023-01-08T13:59:48;5.80;94.10
76936;DHT22;65881;52.438;16.744;2023-01-08T14:02:26;5.80;94.30
76936;DHT22;65881;52.438;16.744;2023-01-08T14:04:53;5.80;94.40
76936;DHT22;65881;52.438;16.744;2023-01-08T14:07:19;5.80;94.40
76936;DHT22;65881;52.438;16.744;2023-01-08T14:09:45;5.70;94.50
76936;DHT22;65881;52.438;16.744;2023-01-08T14:12:13;5.60;94.90
76936;DHT22;65881;52.438;16.744;2023-01-08T14:14:45;5.60;95.20
76936;DHT22;65881;52.438;16.744;2023-01-08T14:17:15;5.60;95.10
76936;DHT22;65881;52.438;16.744;2023-01-08T14:19:44;5.60;95.10
76936;DHT22;65881;52.438;16.744;2023-01-08T14:22:17;5.60;95.00
76936;DHT22;65881;52.438;16.744;2023-01-08T14:24:44;5.50;95.20
76936;DHT22;65881;52.438;16.744;2023-01-08T14:27:25;5.50;95.20
76936;DHT22;65881;52.438;16.744;2023-01-08T14:29:52;5.50;95.30
76936;DHT22;65881;52.438;16.744;2023-01-08T14:32:24;5.50;95.40
76936;DHT22;65881;52.438;16.744;2023-01-08T14:34:51;5.50;95.30
76936;DHT22;65881;52.438;16.744;2023-01-08T14:37:18;5.50;95.40
76936;DHT22;65881;52.438;16.744;2023-01-08T14:39:45;5.50;95.30
76936;DHT22;65881;52.438;16.744;2023-01-08T14:45:12;5.40;95.50
76936;DHT22;65881;52.438;16.744;2023-01-08T14:47:43;5.40;95.60
76936;DHT22;65881;52.438;16.744;2023-01-08T14:50:32;5.30;95.40
76936;DHT22;65881;52.438;16.744;2023-01-08T14:55:29;5.30;95.60
76936;DHT22;65881;52.438;16.744;2023-01-08T14:57:56;5.30;95.50
76936;DHT22;65881;52.438;16.744;2023-01-08T15:00:31;5.30;95.80
76936;DHT22;65881;52.438;16.744;2023-01-08T15:02:57;5.20;96.00
76936;DHT22;65881;52.438;16.744;2023-01-08T15:05:30;5.30;96.90
76936;DHT22;65881;52.438;16.744;2023-01-08T15:10:44;5.20;95.80
76936;DHT22;65881;52.438;16.744;2023-01-08T15:13:22;5.10;96.00
76936;DHT22;65881;52.438;16.744;2023-01-08T15:15:57;5.10;96.20
76936;DHT22;65881;52.438;16.744;2023-01-08T15:18:24;5.10;96.40
76936;DHT22;65881;52.438;16.744;2023-01-08T15:20:51;5.10;96.50
76936;DHT22;65881;52.438;16.744;2023-01-08T15:23:39;5.10;96.40
76936;DHT22;65881;52.438;16.744;2023-01-08T15:26:11;5.10;96.30
76936;DHT22;65881;52.438;16.744;2023-01-08T15:28:43;5.10;96.20
76936;DHT22;65881;52.438;16.744;2023-01-08T15:31:09;5.10;96.50
76936;DHT22;65881;52.438;16.744;2023-01-08T15:33:35;5.10;96.30
76936;DHT22;65881;52.438;16.744;2023-01-08T15:36:00;5.10;95.90
76936;DHT22;65881;52.438;16.744;2023-01-08T15:38:26;5.10;95.90
76936;DHT22;65881;52.438;16.744;2023-01-08T15:40:53;5.10;96.00
76936;DHT22;65881;52.438;16.744;2023-01-08T15:43:19;5.00;96.20
76936;DHT22;65881;52.438;16.744;2023-01-08T15:45:47;5.00;96.40
76936;DHT22;65881;52.438;16.744;2023-01-08T15:48:13;5.00;96.80
76936;DHT22;65881;52.438;16.744;2023-01-08T15:50:41;5.00;96.90
76936;DHT22;65881;52.438;16.744;2023-01-08T15:53:20;4.90;96.80
76936;DHT22;65881;52.438;16.744;2023-01-08T15:55:49;4.90;97.20
76936;DHT22;65881;52.438;16.744;2023-01-08T15:58:16;4.90;97.40
76936;DHT22;65881;52.438;16.744;2023-01-08T16:00:43;4.90;97.30
76936;DHT22;65881;52.438;16.744;2023-01-08T16:03:11;4.80;97.20
76936;DHT22;65881;52.438;16.744;2023-01-08T16:05:38;4.70;97.30
76936;DHT22;65881;52.438;16.744;2023-01-08T16:08:04;4.70;97.40
76936;DHT22;65881;52.438;16.744;2023-01-08T16:10:30;4.50;97.60
76936;DHT22;65881;52.438;16.744;2023-01-08T16:12:56;4.50;98.00
76936;DHT22;65881;52.438;16.744;2023-01-08T16:15:22;4.50;98.20
76936;DHT22;65881;52.438;16.744;2023-01-08T16:17:49;4.40;98.40
76936;DHT22;65881;52.438;16.744;2023-01-08T16:20:16;4.40;98.40
76936;DHT22;65881;52.438;16.744;2023-01-08T16:22:42;4.30;98.40
76936;DHT22;65881;52.438;16.744;2023-01-08T16:25:09;4.30;99.00
76936;DHT22;65881;52.438;16.744;2023-01-08T16:27:35;4.40;99.10
76936;DHT22;65881;52.438;16.744;2023-01-08T16:30:02;4.30;99.00
76936;DHT22;65881;52.438;16.744;2023-01-08T16:32:28;4.30;99.00
76936;DHT22;65881;52.438;16.744;2023-01-08T16:34:54;4.40;98.90
76936;DHT22;65881;52.438;16.744;2023-01-08T16:37:21;4.40;98.60
76936;DHT22;65881;52.438;16.744;2023-01-08T16:39:46;4.50;98.80
76936;DHT22;65881;52.438;16.744;2023-01-08T16:42:12;4.50;98.70
76936;DHT22;65881;52.438;16.744;2023-01-08T16:44:38;4.50;98.50
76936;DHT22;65881;52.438;16.744;2023-01-08T16:47:04;4.50;98.20
76936;DHT22;65881;52.438;16.744;2023-01-08T16:49:29;4.50;98.00
76936;DHT22;65881;52.438;16.744;2023-01-08T16:51:57;4.50;98.00
76936;DHT22;65881;52.438;16.744;2023-01-08T16:54:23;4.50;98.00
76936;DHT22;65881;52.438;16.744;2023-01-08T16:56:52;4.50;97.80
76936;DHT22;65881;52.438;16.744;2023-01-08T16:59:18;4.30;97.70
76936;DHT22;65881;52.438;16.744;2023-01-08T17:01:44;4.30;98.10
76936;DHT22;65881;52.438;16.744;2023-01-08T17:04:11;4.30;98.50
76936;DHT22;65881;52.438;16.744;2023-01-08T17:06:37;4.20;98.60
76936;DHT22;65881;52.438;16.744;2023-01-08T17:09:03;4.30;98.90
76936;DHT22;65881;52.438;16.744;2023-01-08T17:11:29;4.30;98.90
76936;DHT22;65881;52.438;16.744;2023-01-08T17:13:56;4.20;98.90
76936;DHT22;65881;52.438;16.744;2023-01-08T17:16:22;4.20;99.00